sensor_id;sensor_type;location;lat;lon;timestamp;P1;durP1;ratioP1;P2;durP2;ratioP2
3819;SDS011;1925;51.356;9.530;2022-11-15T00:00:55;4.53;;;4.10;;
3819;SDS011;1925;51.356;9.530;2022-11-15T00:03:22;6.10;;;4.20;;
3819;SDS011;1925;51.356;9.530;2022-11-15T00:05:49;5.35;;;3.53;;
3819;SDS011;1925;51.356;9.530;2022-11-15T00:08:15;5.17;;;3.80;;
3819;SDS011;1925;51.356;9.530;2022-11-15T00:10:41;5.13;;;3.70;;
3819;SDS011;1925;51.356;9.530;2022-11-15T00:13:11;7.53;;;3.45;;
3819;SDS011;1925;51.356;9.530;2022-11-15T00:15:38;3.50;;;3.20;;
3819;SDS011;1925;51.356;9.530;2022-11-15T00:18:04;6.85;;;4.15;;
3819;SDS011;1925;51.356;9.530;2022-11-15T00:20:30;7.38;;;3.67;;
3819;SDS011;1925;51.356;9.530;2022-11-15T00:22:56;4.53;;;3.95;;
3819;SDS011;1925;51.356;9.530;2022-11-15T00:25:22;8.77;;;4.07;;
3819;SDS011;1925;51.356;9.530;2022-11-15T00:27:48;5.00;;;4.37;;
3819;SDS011;1925;51.356;9.530;2022-11-15T00:30:16;5.50;;;3.85;;
3819;SDS011;1925;51.356;9.530;2022-11-15T00:32:42;5.30;;;4.20;;
3819;SDS011;1925;51.356;9.530;2022-11-15T00:35:08;5.90;;;3.40;;
3819;SDS011;1925;51.356;9.530;2022-11-15T00:37:34;5.07;;;3.90;;
3819;SDS011;1925;51.356;9.530;2022-11-15T00:40:00;8.13;;;4.33;;
3819;SDS011;1925;51.356;9.530;2022-11-15T00:42:26;5.93;;;3.80;;
3819;SDS011;1925;51.356;9.530;2022-11-15T00:44:52;4.43;;;3.73;;
3819;SDS011;1925;51.356;9.530;2022-11-15T00:47:18;5.60;;;4.40;;
3819;SDS011;1925;51.356;9.530;2022-11-15T00:49:44;6.30;;;4.07;;
3819;SDS011;1925;51.356;9.530;2022-11-15T00:52:09;4.17;;;3.40;;
3819;SDS011;1925;51.356;9.530;2022-11-15T00:54:35;5.90;;;4.27;;
3819;SDS011;1925;51.356;9.530;2022-11-15T00:57:01;6.03;;;4.87;;
3819;SDS011;1925;51.356;9.530;2022-11-15T00:59:27;7.00;;;4.85;;
3819;SDS011;1925;51.356;9.530;2022-11-15T01:01:53;7.50;;;4.80;;
3819;SDS011;1925;51.356;9.530;2022-11-15T01:04:19;4.20;;;3.80;;
3819;SDS011;1925;51.356;9.530;2022-11-15T01:06:45;6.07;;;5.57;;
3819;SDS011;1925;51.356;9.530;2022-11-15T01:09:11;9.13;;;5.37;;
3819;SDS011;1925;51.356;9.530;2022-11-15T01:11:38;5.68;;;4.20;;
3819;SDS011;1925;51.356;9.530;2022-11-15T01:14:04;7.38;;;4.93;;
3819;SDS011;1925;51.356;9.530;2022-11-15T01:16:30;5.30;;;4.77;;
3819;SDS011;1925;51.356;9.530;2022-11-15T01:18:57;6.15;;;4.55;;
3819;SDS011;1925;51.356;9.530;2022-11-15T01:21:23;6.05;;;4.35;;
3819;SDS011;1925;51.356;9.530;2022-11-15T01:23:52;9.87;;;5.07;;
3819;SDS011;1925;51.356;9.530;2022-11-15T01:26:19;8.05;;;4.90;;
3819;SDS011;1925;51.356;9.530;2022-11-15T01:28:45;8.75;;;4.75;;
3819;SDS011;1925;51.356;9.530;2022-11-15T01:31:14;5.17;;;4.43;;
3819;SDS011;1925;51.356;9.530;2022-11-15T01:33:40;7.35;;;4.25;;
3819;SDS011;1925;51.356;9.530;2022-11-15T01:36:07;6.35;;;4.43;;
3819;SDS011;1925;51.356;9.530;2022-11-15T01:38:34;7.22;;;4.40;;
3819;SDS011;1925;51.356;9.530;2022-11-15T01:41:00;4.90;;;4.40;;
3819;SDS011;1925;51.356;9.530;2022-11-15T01:43:27;5.60;;;4.33;;
3819;SDS011;1925;51.356;9.530;2022-11-15T01:45:58;5.95;;;4.75;;
3819;SDS011;1925;51.356;9.530;2022-11-15T01:48:28;7.43;;;5.13;;
3819;SDS011;1925;51.356;9.530;2022-11-15T01:50:56;6.60;;;4.63;;
3819;SDS011;1925;51.356;9.530;2022-11-15T01:53:23;10.00;;;4.53;;
3819;SDS011;1925;51.356;9.530;2022-11-15T01:55:50;8.25;;;4.72;;
3819;SDS011;1925;51.356;9.530;2022-11-15T01:58:16;6.75;;;4.55;;
3819;SDS011;1925;51.356;9.530;2022-11-15T02:00:42;6.17;;;4.50;;
3819;SDS011;1925;51.356;9.530;2022-11-15T02:03:08;5.83;;;5.20;;
3819;SDS011;1925;51.356;9.530;2022-11-15T02:05:35;8.13;;;5.20;;
3819;SDS011;1925;51.356;9.530;2022-11-15T02:08:01;6.15;;;5.20;;
3819;SDS011;1925;51.356;9.530;2022-11-15T02:10:28;5.50;;;4.93;;
3819;SDS011;1925;51.356;9.530;2022-11-15T02:12:54;6.78;;;4.65;;
3819;SDS011;1925;51.356;9.530;2022-11-15T02:15:21;5.38;;;4.88;;
3819;SDS011;1925;51.356;9.530;2022-11-15T02:20:27;11.93;;;4.77;;
3819;SDS011;1925;51.356;9.530;2022-11-15T02:23:01;5.25;;;4.05;;
3819;SDS011;1925;51.356;9.530;2022-11-15T02:25:37;6.13;;;4.10;;
3819;SDS011;1925;51.356;9.530;2022-11-15T02:43:12;3.90;;;3.05;;
3819;SDS011;1925;51.356;9.530;2022-11-15T02:46:04;6.65;;;3.97;;
3819;SDS011;1925;51.356;9.530;2022-11-15T02:48:32;4.85;;;4.05;;
3819;SDS011;1925;51.356;9.530;2022-11-15T02:50:59;7.47;;;3.90;;
3819;SDS011;1925;51.356;9.530;2022-11-15T02:53:26;5.68;;;3.25;;
3819;SDS011;1925;51.356;9.530;2022-11-15T02:55:53;4.35;;;3.38;;
3819;SDS011;1925;51.356;9.530;2022-11-15T03:08:50;8.03;;;4.10;;
3819;SDS011;1925;51.356;9.530;2022-11-15T03:11:19;3.30;;;2.55;;
3819;SDS011;1925;51.356;9.530;2022-11-15T03:14:10;4.60;;;3.35;;
3819;SDS011;1925;51.356;9.530;2022-11-15T03:21:30;4.37;;;2.57;;
3819;SDS011;1925;51.356;9.530;2022-11-15T03:23:58;4.72;;;3.33;;
3819;SDS011;1925;51.356;9.530;2022-11-15T03:26:26;4.10;;;2.75;;
3819;SDS011;1925;51.356;9.530;2022-11-15T03:28:55;5.07;;;3.10;;
3819;SDS011;1925;51.356;9.530;2022-11-15T03:31:22;4.35;;;2.67;;
3819;SDS011;1925;51.356;9.530;2022-11-15T03:34:10;4.75;;;2.92;;
3819;SDS011;1925;51.356;9.530;2022-11-15T03:36:39;4.97;;;3.47;;
3819;SDS011;1925;51.356;9.530;2022-11-15T03:39:06;4.57;;;3.13;;
3819;SDS011;1925;51.356;9.530;2022-11-15T03:41:39;3.28;;;2.55;;
3819;SDS011;1925;51.356;9.530;2022-11-15T03:49:22;3.92;;;2.72;;
3819;SDS011;1925;51.356;9.530;2022-11-15T03:51:50;3.97;;;2.83;;
3819;SDS011;1925;51.356;9.530;2022-11-15T03:54:16;4.03;;;3.40;;
3819;SDS011;1925;51.356;9.530;2022-11-15T03:56:42;3.13;;;2.73;;
3819;SDS011;1925;51.356;9.530;2022-11-15T03:59:08;4.97;;;2.93;;
3819;SDS011;1925;51.356;9.530;2022-11-15T04:01:34;6.95;;;2.67;;
3819;SDS011;1925;51.356;9.530;2022-11-15T04:04:00;4.93;;;3.30;;
3819;SDS011;1925;51.356;9.530;2022-11-15T04:06:26;4.90;;;2.80;;
3819;SDS011;1925;51.356;9.530;2022-11-15T04:08:52;4.30;;;3.17;;
3819;SDS011;1925;51.356;9.530;2022-11-15T04:11:17;3.80;;;3.03;;
3819;SDS011;1925;51.356;9.530;2022-11-15T04:13:43;4.10;;;3.37;;
3819;SDS011;1925;51.356;9.530;2022-11-15T04:16:09;4.27;;;3.07;;
3819;SDS011;1925;51.356;9.530;2022-11-15T04:18:35;5.00;;;2.77;;
3819;SDS011;1925;51.356;9.530;2022-11-15T04:21:01;6.10;;;3.30;;
3819;SDS011;1925;51.356;9.530;2022-11-15T04:23:46;4.30;;;3.00;;
3819;SDS011;1925;51.356;9.530;2022-11-15T04:26:19;3.03;;;2.72;;
3819;SDS011;1925;51.356;9.530;2022-11-15T04:28:46;5.22;;;3.67;;
3819;SDS011;1925;51.356;9.530;2022-11-15T04:31:30;5.82;;;3.25;;
3819;SDS011;1925;51.356;9.530;2022-11-15T04:33:56;3.33;;;3.00;;
3819;SDS011;1925;51.356;9.530;2022-11-15T04:36:22;4.20;;;2.75;;
3819;SDS011;1925;51.356;9.530;2022-11-15T04:39:07;3.90;;;3.40;;
3819;SDS011;1925;51.356;9.530;2022-11-15T04:41:33;7.50;;;4.20;;
3819;SDS011;1925;51.356;9.530;2022-11-15T04:43:59;6.10;;;3.90;;
3819;SDS011;1925;51.356;9.530;2022-11-15T04:46:25;4.70;;;4.10;;
3819;SDS011;1925;51.356;9.530;2022-11-15T04:48:52;4.15;;;3.33;;
3819;SDS011;1925;51.356;9.530;2022-11-15T04:51:18;3.35;;;2.90;;
3819;SDS011;1925;51.356;9.530;2022-11-15T04:53:44;4.45;;;3.47;;
3819;SDS011;1925;51.356;9.530;2022-11-15T04:56:10;3.53;;;2.83;;
3819;SDS011;1925;51.356;9.530;2022-11-15T04:58:36;3.87;;;3.20;;
3819;SDS011;1925;51.356;9.530;2022-11-15T05:01:12;3.70;;;3.25;;
3819;SDS011;1925;51.356;9.530;2022-11-15T05:03:39;3.80;;;2.97;;
3819;SDS011;1925;51.356;9.530;2022-11-15T05:06:24;5.65;;;3.50;;
3819;SDS011;1925;51.356;9.530;2022-11-15T05:08:50;4.20;;;3.63;;
3819;SDS011;1925;51.356;9.530;2022-11-15T05:11:16;4.03;;;3.63;;
3819;SDS011;1925;51.356;9.530;2022-11-15T05:13:42;4.22;;;3.15;;
3819;SDS011;1925;51.356;9.530;2022-11-15T05:16:08;3.23;;;2.50;;
3819;SDS011;1925;51.356;9.530;2022-11-15T05:18:34;6.30;;;3.17;;
3819;SDS011;1925;51.356;9.530;2022-11-15T05:21:07;4.35;;;2.97;;
3819;SDS011;1925;51.356;9.530;2022-11-15T05:23:33;4.55;;;2.72;;
3819;SDS011;1925;51.356;9.530;2022-11-15T05:26:00;4.13;;;3.67;;
3819;SDS011;1925;51.356;9.530;2022-11-15T05:28:26;4.30;;;3.42;;
3819;SDS011;1925;51.356;9.530;2022-11-15T05:30:52;4.03;;;3.10;;
3819;SDS011;1925;51.356;9.530;2022-11-15T05:33:18;3.47;;;2.55;;
3819;SDS011;1925;51.356;9.530;2022-11-15T05:35:50;4.18;;;3.25;;
3819;SDS011;1925;51.356;9.530;2022-11-15T05:38:17;3.65;;;2.60;;
3819;SDS011;1925;51.356;9.530;2022-11-15T05:40:43;3.70;;;3.23;;
3819;SDS011;1925;51.356;9.530;2022-11-15T05:43:09;3.73;;;3.37;;
3819;SDS011;1925;51.356;9.530;2022-11-15T05:45:35;3.28;;;2.92;;
3819;SDS011;1925;51.356;9.530;2022-11-15T05:48:04;6.35;;;3.67;;
3819;SDS011;1925;51.356;9.530;2022-11-15T05:50:31;4.63;;;3.40;;
3819;SDS011;1925;51.356;9.530;2022-11-15T05:52:57;4.00;;;2.92;;
3819;SDS011;1925;51.356;9.530;2022-11-15T05:55:23;5.82;;;3.47;;
3819;SDS011;1925;51.356;9.530;2022-11-15T05:57:49;3.50;;;3.20;;
3819;SDS011;1925;51.356;9.530;2022-11-15T06:00:15;5.57;;;3.20;;
3819;SDS011;1925;51.356;9.530;2022-11-15T06:02:41;6.45;;;3.60;;
3819;SDS011;1925;51.356;9.530;2022-11-15T06:05:07;5.07;;;4.13;;
3819;SDS011;1925;51.356;9.530;2022-11-15T06:07:33;6.40;;;3.97;;
3819;SDS011;1925;51.356;9.530;2022-11-15T06:09:59;5.90;;;3.80;;
3819;SDS011;1925;51.356;9.530;2022-11-15T06:12:25;4.53;;;3.80;;
3819;SDS011;1925;51.356;9.530;2022-11-15T06:14:51;3.47;;;3.10;;
3819;SDS011;1925;51.356;9.530;2022-11-15T06:17:17;4.60;;;3.37;;
3819;SDS011;1925;51.356;9.530;2022-11-15T06:19:43;5.10;;;3.63;;
3819;SDS011;1925;51.356;9.530;2022-11-15T06:22:09;5.30;;;3.60;;
3819;SDS011;1925;51.356;9.530;2022-11-15T06:24:35;3.77;;;3.00;;
3819;SDS011;1925;51.356;9.530;2022-11-15T06:27:00;6.22;;;3.53;;
3819;SDS011;1925;51.356;9.530;2022-11-15T06:29:26;4.50;;;2.80;;
3819;SDS011;1925;51.356;9.530;2022-11-15T06:31:52;5.50;;;3.33;;
3819;SDS011;1925;51.356;9.530;2022-11-15T06:34:18;4.13;;;3.13;;
3819;SDS011;1925;51.356;9.530;2022-11-15T06:36:44;5.57;;;3.30;;
3819;SDS011;1925;51.356;9.530;2022-11-15T06:39:10;4.47;;;4.07;;
3819;SDS011;1925;51.356;9.530;2022-11-15T06:41:36;6.47;;;3.67;;
3819;SDS011;1925;51.356;9.530;2022-11-15T06:44:02;9.10;;;3.13;;
3819;SDS011;1925;51.356;9.530;2022-11-15T06:46:28;3.80;;;3.40;;
3819;SDS011;1925;51.356;9.530;2022-11-15T06:48:54;5.10;;;2.90;;
3819;SDS011;1925;51.356;9.530;2022-11-15T06:51:20;6.72;;;2.70;;
3819;SDS011;1925;51.356;9.530;2022-11-15T06:53:46;6.23;;;2.90;;
3819;SDS011;1925;51.356;9.530;2022-11-15T06:56:12;4.10;;;3.70;;
3819;SDS011;1925;51.356;9.530;2022-11-15T06:58:38;3.00;;;2.70;;
3819;SDS011;1925;51.356;9.530;2022-11-15T07:01:05;4.77;;;3.70;;
3819;SDS011;1925;51.356;9.530;2022-11-15T07:03:33;3.03;;;2.72;;
3819;SDS011;1925;51.356;9.530;2022-11-15T07:05:59;8.27;;;3.88;;
3819;SDS011;1925;51.356;9.530;2022-11-15T07:08:26;5.32;;;3.45;;
3819;SDS011;1925;51.356;9.530;2022-11-15T07:10:53;5.43;;;4.43;;
3819;SDS011;1925;51.356;9.530;2022-11-15T07:13:19;4.40;;;3.05;;
3819;SDS011;1925;51.356;9.530;2022-11-15T07:15:45;5.53;;;2.90;;
3819;SDS011;1925;51.356;9.530;2022-11-15T07:18:11;3.30;;;2.50;;
3819;SDS011;1925;51.356;9.530;2022-11-15T07:20:37;6.30;;;3.50;;
3819;SDS011;1925;51.356;9.530;2022-11-15T07:23:04;3.28;;;2.97;;
3819;SDS011;1925;51.356;9.530;2022-11-15T07:25:30;2.97;;;2.65;;
3819;SDS011;1925;51.356;9.530;2022-11-15T07:27:57;3.25;;;2.67;;
3819;SDS011;1925;51.356;9.530;2022-11-15T07:30:23;5.25;;;3.40;;
3819;SDS011;1925;51.356;9.530;2022-11-15T07:32:56;4.10;;;3.70;;
3819;SDS011;1925;51.356;9.530;2022-11-15T07:35:23;4.85;;;2.95;;
3819;SDS011;1925;51.356;9.530;2022-11-15T07:37:55;4.45;;;3.10;;
3819;SDS011;1925;51.356;9.530;2022-11-15T07:40:22;5.40;;;3.35;;
3819;SDS011;1925;51.356;9.530;2022-11-15T07:42:48;3.42;;;2.30;;
3819;SDS011;1925;51.356;9.530;2022-11-15T07:45:17;3.05;;;2.80;;
3819;SDS011;1925;51.356;9.530;2022-11-15T07:47:46;4.80;;;3.00;;
3819;SDS011;1925;51.356;9.530;2022-11-15T07:50:12;4.70;;;3.10;;
3819;SDS011;1925;51.356;9.530;2022-11-15T07:52:38;8.57;;;3.13;;
3819;SDS011;1925;51.356;9.530;2022-11-15T07:55:04;5.60;;;3.07;;
3819;SDS011;1925;51.356;9.530;2022-11-15T07:57:30;4.28;;;3.15;;
3819;SDS011;1925;51.356;9.530;2022-11-15T07:59:56;7.03;;;3.40;;
3819;SDS011;1925;51.356;9.530;2022-11-15T08:02:22;4.73;;;3.27;;
3819;SDS011;1925;51.356;9.530;2022-11-15T08:04:48;7.13;;;3.10;;
3819;SDS011;1925;51.356;9.530;2022-11-15T08:07:14;8.50;;;3.97;;
3819;SDS011;1925;51.356;9.530;2022-11-15T08:09:40;13.10;;;4.93;;
3819;SDS011;1925;51.356;9.530;2022-11-15T08:12:06;7.53;;;3.13;;
3819;SDS011;1925;51.356;9.530;2022-11-15T08:14:32;5.50;;;3.25;;
3819;SDS011;1925;51.356;9.530;2022-11-15T08:16:58;5.15;;;3.25;;
3819;SDS011;1925;51.356;9.530;2022-11-15T08:19:24;5.80;;;3.43;;
3819;SDS011;1925;51.356;9.530;2022-11-15T08:21:50;9.30;;;4.70;;
3819;SDS011;1925;51.356;9.530;2022-11-15T08:24:16;4.15;;;3.75;;
3819;SDS011;1925;51.356;9.530;2022-11-15T08:26:42;12.83;;;3.70;;
3819;SDS011;1925;51.356;9.530;2022-11-15T08:29:08;5.20;;;3.00;;
3819;SDS011;1925;51.356;9.530;2022-11-15T08:31:35;3.33;;;3.03;;
3819;SDS011;1925;51.356;9.530;2022-11-15T08:34:04;5.65;;;3.03;;
3819;SDS011;1925;51.356;9.530;2022-11-15T08:36:30;6.43;;;3.60;;
3819;SDS011;1925;51.356;9.530;2022-11-15T08:38:56;4.20;;;3.10;;
3819;SDS011;1925;51.356;9.530;2022-11-15T08:41:32;5.27;;;3.40;;
3819;SDS011;1925;51.356;9.530;2022-11-15T08:43:59;3.47;;;2.97;;
3819;SDS011;1925;51.356;9.530;2022-11-15T08:46:25;5.13;;;3.10;;
3819;SDS011;1925;51.356;9.530;2022-11-15T08:48:50;3.63;;;3.00;;
3819;SDS011;1925;51.356;9.530;2022-11-15T08:51:16;5.67;;;2.73;;
3819;SDS011;1925;51.356;9.530;2022-11-15T08:53:42;7.07;;;3.20;;
3819;SDS011;1925;51.356;9.530;2022-11-15T08:56:09;3.03;;;2.53;;
3819;SDS011;1925;51.356;9.530;2022-11-15T08:58:36;2.97;;;2.70;;
3819;SDS011;1925;51.356;9.530;2022-11-15T09:01:02;2.93;;;2.50;;
3819;SDS011;1925;51.356;9.530;2022-11-15T09:03:29;3.30;;;2.40;;
3819;SDS011;1925;51.356;9.530;2022-11-15T09:05:58;4.33;;;2.40;;
3819;SDS011;1925;51.356;9.530;2022-11-15T09:08:25;4.53;;;2.53;;
3819;SDS011;1925;51.356;9.530;2022-11-15T09:10:51;3.40;;;2.73;;
3819;SDS011;1925;51.356;9.530;2022-11-15T09:13:17;3.40;;;2.90;;
3819;SDS011;1925;51.356;9.530;2022-11-15T09:15:43;3.83;;;3.03;;
3819;SDS011;1925;51.356;9.530;2022-11-15T09:18:09;3.47;;;2.53;;
3819;SDS011;1925;51.356;9.530;2022-11-15T09:20:35;6.33;;;3.43;;
3819;SDS011;1925;51.356;9.530;2022-11-15T09:23:01;3.63;;;2.97;;
3819;SDS011;1925;51.356;9.530;2022-11-15T09:25:28;4.00;;;3.60;;
3819;SDS011;1925;51.356;9.530;2022-11-15T09:27:54;7.00;;;3.50;;
3819;SDS011;1925;51.356;9.530;2022-11-15T09:30:20;7.40;;;3.57;;
3819;SDS011;1925;51.356;9.530;2022-11-15T09:32:46;4.67;;;3.67;;
3819;SDS011;1925;51.356;9.530;2022-11-15T09:35:12;6.13;;;3.23;;
3819;SDS011;1925;51.356;9.530;2022-11-15T09:37:38;4.50;;;3.60;;
3819;SDS011;1925;51.356;9.530;2022-11-15T09:40:04;13.10;;;3.60;;
3819;SDS011;1925;51.356;9.530;2022-11-15T09:44:59;4.90;;;3.20;;
3819;SDS011;1925;51.356;9.530;2022-11-15T09:47:41;7.33;;;4.20;;
3819;SDS011;1925;51.356;9.530;2022-11-15T09:50:10;5.80;;;4.00;;
3819;SDS011;1925;51.356;9.530;2022-11-15T09:52:37;4.63;;;3.50;;
3819;SDS011;1925;51.356;9.530;2022-11-15T09:55:05;7.40;;;3.80;;
3819;SDS011;1925;51.356;9.530;2022-11-15T09:57:38;6.03;;;3.70;;
3819;SDS011;1925;51.356;9.530;2022-11-15T10:00:08;5.47;;;3.43;;
3819;SDS011;1925;51.356;9.530;2022-11-15T10:05:20;6.93;;;3.77;;
3819;SDS011;1925;51.356;9.530;2022-11-15T10:08:06;5.70;;;4.07;;
3819;SDS011;1925;51.356;9.530;2022-11-15T10:10:40;4.10;;;3.53;;
3819;SDS011;1925;51.356;9.530;2022-11-15T10:13:18;5.10;;;4.00;;
3819;SDS011;1925;51.356;9.530;2022-11-15T10:15:45;5.40;;;3.40;;
3819;SDS011;1925;51.356;9.530;2022-11-15T10:20:42;5.13;;;3.60;;
3819;SDS011;1925;51.356;9.530;2022-11-15T10:23:10;6.03;;;4.23;;
3819;SDS011;1925;51.356;9.530;2022-11-15T10:25:37;5.70;;;4.43;;
3819;SDS011;1925;51.356;9.530;2022-11-15T10:30:51;6.20;;;4.20;;
3819;SDS011;1925;51.356;9.530;2022-11-15T10:36:21;7.50;;;4.20;;
3819;SDS011;1925;51.356;9.530;2022-11-15T10:41:19;5.47;;;4.10;;
3819;SDS011;1925;51.356;9.530;2022-11-15T10:43:45;5.63;;;3.80;;
3819;SDS011;1925;51.356;9.530;2022-11-15T10:46:26;5.50;;;3.20;;
3819;SDS011;1925;51.356;9.530;2022-11-15T10:48:52;4.40;;;3.70;;
3819;SDS011;1925;51.356;9.530;2022-11-15T10:51:19;5.97;;;3.73;;
3819;SDS011;1925;51.356;9.530;2022-11-15T10:53:47;5.10;;;2.80;;
3819;SDS011;1925;51.356;9.530;2022-11-15T10:56:13;3.30;;;3.00;;
3819;SDS011;1925;51.356;9.530;2022-11-15T10:58:44;3.53;;;3.13;;
3819;SDS011;1925;51.356;9.530;2022-11-15T11:01:14;4.73;;;2.63;;
3819;SDS011;1925;51.356;9.530;2022-11-15T11:03:41;3.10;;;2.90;;
3819;SDS011;1925;51.356;9.530;2022-11-15T11:08:36;5.03;;;2.90;;
3819;SDS011;1925;51.356;9.530;2022-11-15T11:11:03;5.23;;;3.27;;
3819;SDS011;1925;51.356;9.530;2022-11-15T11:13:34;3.23;;;2.90;;
3819;SDS011;1925;51.356;9.530;2022-11-15T11:16:09;8.37;;;3.30;;
3819;SDS011;1925;51.356;9.530;2022-11-15T11:18:49;4.17;;;2.37;;
3819;SDS011;1925;51.356;9.530;2022-11-15T11:21:18;3.97;;;2.90;;
3819;SDS011;1925;51.356;9.530;2022-11-15T11:23:58;3.17;;;2.70;;
3819;SDS011;1925;51.356;9.530;2022-11-15T11:28:56;4.25;;;3.25;;
3819;SDS011;1925;51.356;9.530;2022-11-15T11:31:35;3.30;;;2.67;;
3819;SDS011;1925;51.356;9.530;2022-11-15T11:36:36;3.03;;;2.63;;
3819;SDS011;1925;51.356;9.530;2022-11-15T11:47:36;4.63;;;3.05;;
3819;SDS011;1925;51.356;9.530;2022-11-15T11:50:14;3.70;;;2.75;;
3819;SDS011;1925;51.356;9.530;2022-11-15T11:52:57;3.23;;;2.67;;
3819;SDS011;1925;51.356;9.530;2022-11-15T11:55:34;4.47;;;3.42;;
3819;SDS011;1925;51.356;9.530;2022-11-15T12:00:37;2.78;;;2.47;;
3819;SDS011;1925;51.356;9.530;2022-11-15T12:05:55;5.20;;;3.37;;
3819;SDS011;1925;51.356;9.530;2022-11-15T12:10:59;4.20;;;3.80;;
3819;SDS011;1925;51.356;9.530;2022-11-15T12:13:26;3.23;;;2.93;;
3819;SDS011;1925;51.356;9.530;2022-11-15T12:16:03;3.87;;;2.60;;
3819;SDS011;1925;51.356;9.530;2022-11-15T12:18:31;6.70;;;3.00;;
3819;SDS011;1925;51.356;9.530;2022-11-15T12:20:59;5.23;;;2.20;;
3819;SDS011;1925;51.356;9.530;2022-11-15T12:23:28;5.33;;;2.80;;
3819;SDS011;1925;51.356;9.530;2022-11-15T12:26:06;7.70;;;3.30;;
3819;SDS011;1925;51.356;9.530;2022-11-15T12:31:23;5.17;;;2.97;;
3819;SDS011;1925;51.356;9.530;2022-11-15T12:33:47;2.73;;;2.43;;
3819;SDS011;1925;51.356;9.530;2022-11-15T12:38:55;4.17;;;2.80;;
3819;SDS011;1925;51.356;9.530;2022-11-15T12:41:28;4.47;;;3.20;;
3819;SDS011;1925;51.356;9.530;2022-11-15T12:43:55;3.63;;;2.70;;
3819;SDS011;1925;51.356;9.530;2022-11-15T12:46:22;2.60;;;2.40;;
3819;SDS011;1925;51.356;9.530;2022-11-15T12:51:15;2.50;;;2.30;;
3819;SDS011;1925;51.356;9.530;2022-11-15T12:53:41;4.30;;;2.40;;
3819;SDS011;1925;51.356;9.530;2022-11-15T12:58:53;4.83;;;2.67;;
3819;SDS011;1925;51.356;9.530;2022-11-15T13:01:55;3.80;;;2.60;;
3819;SDS011;1925;51.356;9.530;2022-11-15T13:12:03;4.30;;;3.10;;
3819;SDS011;1925;51.356;9.530;2022-11-15T13:19:56;5.40;;;2.47;;
3819;SDS011;1925;51.356;9.530;2022-11-15T13:22:24;2.63;;;2.20;;
3819;SDS011;1925;51.356;9.530;2022-11-15T13:28:01;3.67;;;2.57;;
3819;SDS011;1925;51.356;9.530;2022-11-15T13:30:29;3.10;;;1.70;;
3819;SDS011;1925;51.356;9.530;2022-11-15T13:32:56;2.60;;;2.10;;
3819;SDS011;1925;51.356;9.530;2022-11-15T13:35:25;2.33;;;2.10;;
3819;SDS011;1925;51.356;9.530;2022-11-15T13:37:51;3.67;;;3.17;;
3819;SDS011;1925;51.356;9.530;2022-11-15T13:42:47;1.97;;;1.87;;
3819;SDS011;1925;51.356;9.530;2022-11-15T13:45:13;3.07;;;2.00;;
3819;SDS011;1925;51.356;9.530;2022-11-15T13:47:40;2.50;;;2.20;;
3819;SDS011;1925;51.356;9.530;2022-11-15T13:50:10;2.37;;;2.13;;
3819;SDS011;1925;51.356;9.530;2022-11-15T13:52:36;4.23;;;2.83;;
3819;SDS011;1925;51.356;9.530;2022-11-15T13:55:14;3.63;;;2.40;;
3819;SDS011;1925;51.356;9.530;2022-11-15T13:57:42;2.00;;;1.80;;
3819;SDS011;1925;51.356;9.530;2022-11-15T14:00:24;3.30;;;2.60;;
3819;SDS011;1925;51.356;9.530;2022-11-15T14:02:50;4.33;;;3.03;;
3819;SDS011;1925;51.356;9.530;2022-11-15T14:05:18;2.40;;;2.20;;
3819;SDS011;1925;51.356;9.530;2022-11-15T14:07:54;2.50;;;2.27;;
3819;SDS011;1925;51.356;9.530;2022-11-15T14:12:55;5.50;;;2.20;;
3819;SDS011;1925;51.356;9.530;2022-11-15T14:15:32;4.03;;;2.70;;
3819;SDS011;1925;51.356;9.530;2022-11-15T14:17:59;2.97;;;2.07;;
3819;SDS011;1925;51.356;9.530;2022-11-15T14:22:53;3.67;;;2.13;;
3819;SDS011;1925;51.356;9.530;2022-11-15T14:25:20;5.00;;;2.40;;
3819;SDS011;1925;51.356;9.530;2022-11-15T14:30:31;4.47;;;2.30;;
3819;SDS011;1925;51.356;9.530;2022-11-15T14:32:57;3.30;;;2.10;;
3819;SDS011;1925;51.356;9.530;2022-11-15T14:35:23;2.57;;;2.37;;
3819;SDS011;1925;51.356;9.530;2022-11-15T14:37:49;2.67;;;2.30;;
3819;SDS011;1925;51.356;9.530;2022-11-15T14:40:16;5.37;;;2.70;;
3819;SDS011;1925;51.356;9.530;2022-11-15T14:42:46;2.53;;;2.33;;
3819;SDS011;1925;51.356;9.530;2022-11-15T14:45:22;3.60;;;2.97;;
3819;SDS011;1925;51.356;9.530;2022-11-15T14:47:48;3.30;;;2.60;;
3819;SDS011;1925;51.356;9.530;2022-11-15T14:50:15;2.87;;;2.53;;
3819;SDS011;1925;51.356;9.530;2022-11-15T14:52:41;3.10;;;2.40;;
3819;SDS011;1925;51.356;9.530;2022-11-15T14:55:18;3.13;;;2.93;;
3819;SDS011;1925;51.356;9.530;2022-11-15T14:57:45;3.50;;;2.73;;
3819;SDS011;1925;51.356;9.530;2022-11-15T15:00:11;6.93;;;3.17;;
3819;SDS011;1925;51.356;9.530;2022-11-15T15:02:37;3.83;;;2.47;;
3819;SDS011;1925;51.356;9.530;2022-11-15T15:05:23;3.50;;;2.50;;
3819;SDS011;1925;51.356;9.530;2022-11-15T15:07:50;2.70;;;2.37;;
3819;SDS011;1925;51.356;9.530;2022-11-15T15:10:19;4.30;;;2.27;;
3819;SDS011;1925;51.356;9.530;2022-11-15T15:12:45;3.90;;;3.10;;
3819;SDS011;1925;51.356;9.530;2022-11-15T15:15:12;6.70;;;2.97;;
3819;SDS011;1925;51.356;9.530;2022-11-15T15:17:39;5.83;;;2.83;;
3819;SDS011;1925;51.356;9.530;2022-11-15T15:20:05;7.50;;;3.27;;
3819;SDS011;1925;51.356;9.530;2022-11-15T15:22:31;4.10;;;2.97;;
3819;SDS011;1925;51.356;9.530;2022-11-15T15:24:57;3.87;;;3.47;;
3819;SDS011;1925;51.356;9.530;2022-11-15T15:27:23;4.97;;;3.50;;
3819;SDS011;1925;51.356;9.530;2022-11-15T15:29:49;5.47;;;3.53;;
3819;SDS011;1925;51.356;9.530;2022-11-15T15:32:15;6.83;;;3.27;;
3819;SDS011;1925;51.356;9.530;2022-11-15T15:34:41;3.40;;;3.10;;
3819;SDS011;1925;51.356;9.530;2022-11-15T15:37:23;4.30;;;3.90;;
3819;SDS011;1925;51.356;9.530;2022-11-15T15:39:53;3.97;;;2.80;;
3819;SDS011;1925;51.356;9.530;2022-11-15T15:42:19;2.70;;;2.20;;
3819;SDS011;1925;51.356;9.530;2022-11-15T15:44:46;3.40;;;2.50;;
3819;SDS011;1925;51.356;9.530;2022-11-15T15:47:13;2.20;;;1.83;;
3819;SDS011;1925;51.356;9.530;2022-11-15T15:49:40;2.50;;;2.30;;
3819;SDS011;1925;51.356;9.530;2022-11-15T15:52:06;3.00;;;2.70;;
3819;SDS011;1925;51.356;9.530;2022-11-15T15:54:32;3.20;;;2.77;;
3819;SDS011;1925;51.356;9.530;2022-11-15T15:56:58;3.73;;;3.33;;
3819;SDS011;1925;51.356;9.530;2022-11-15T15:59:24;6.27;;;4.13;;
3819;SDS011;1925;51.356;9.530;2022-11-15T16:01:50;4.27;;;3.53;;
3819;SDS011;1925;51.356;9.530;2022-11-15T16:04:16;4.57;;;3.23;;
3819;SDS011;1925;51.356;9.530;2022-11-15T16:06:42;6.70;;;2.92;;
3819;SDS011;1925;51.356;9.530;2022-11-15T16:09:18;3.87;;;2.63;;
3819;SDS011;1925;51.356;9.530;2022-11-15T16:12:07;4.57;;;3.60;;
3819;SDS011;1925;51.356;9.530;2022-11-15T16:14:34;3.17;;;2.87;;
3819;SDS011;1925;51.356;9.530;2022-11-15T16:17:01;4.73;;;2.60;;
3819;SDS011;1925;51.356;9.530;2022-11-15T16:19:27;5.20;;;3.10;;
3819;SDS011;1925;51.356;9.530;2022-11-15T16:21:53;4.20;;;3.27;;
3819;SDS011;1925;51.356;9.530;2022-11-15T16:24:19;3.40;;;2.70;;
3819;SDS011;1925;51.356;9.530;2022-11-15T16:26:46;4.07;;;2.53;;
3819;SDS011;1925;51.356;9.530;2022-11-15T16:29:12;3.63;;;2.75;;
3819;SDS011;1925;51.356;9.530;2022-11-15T16:31:38;2.73;;;2.33;;
3819;SDS011;1925;51.356;9.530;2022-11-15T16:34:04;2.40;;;2.20;;
3819;SDS011;1925;51.356;9.530;2022-11-15T16:36:32;5.22;;;2.00;;
3819;SDS011;1925;51.356;9.530;2022-11-15T16:38:59;4.72;;;3.40;;
3819;SDS011;1925;51.356;9.530;2022-11-15T16:41:28;5.75;;;2.20;;
3819;SDS011;1925;51.356;9.530;2022-11-15T16:43:55;2.88;;;2.60;;
3819;SDS011;1925;51.356;9.530;2022-11-15T16:46:21;3.72;;;2.38;;
3819;SDS011;1925;51.356;9.530;2022-11-15T16:48:48;3.30;;;2.20;;
3819;SDS011;1925;51.356;9.530;2022-11-15T16:51:14;4.93;;;2.03;;
3819;SDS011;1925;51.356;9.530;2022-11-15T16:53:40;2.70;;;2.33;;
3819;SDS011;1925;51.356;9.530;2022-11-15T16:56:26;4.57;;;2.50;;
3819;SDS011;1925;51.356;9.530;2022-11-15T16:58:53;2.97;;;2.53;;
3819;SDS011;1925;51.356;9.530;2022-11-15T17:01:21;2.30;;;1.95;;
3819;SDS011;1925;51.356;9.530;2022-11-15T17:03:48;4.00;;;2.63;;
3819;SDS011;1925;51.356;9.530;2022-11-15T17:06:14;2.87;;;2.20;;
3819;SDS011;1925;51.356;9.530;2022-11-15T17:08:42;2.60;;;2.40;;
3819;SDS011;1925;51.356;9.530;2022-11-15T17:11:08;2.43;;;2.20;;
3819;SDS011;1925;51.356;9.530;2022-11-15T17:13:34;2.90;;;2.13;;
3819;SDS011;1925;51.356;9.530;2022-11-15T17:16:04;3.90;;;2.83;;